Terminal Aerodrome Forecast
Issued by NWS

Home | Current Version | Previous Version | Text Only | Print | Product List | Glossary Off
Versions: 1 2 3 4 5 6 7 8 9 10 11 12

000
FTUS43 KMPX 240520
TAFRNH
TAF
KRNH 240520Z 2406/2506 11007KT P6SM BKN200
     FM241300 13011KT P6SM BKN200
     FM241700 16016G26KT P6SM BKN250
     FM250000 17010KT P6SM OVC050 PROB30 2502/2505 5SM -SHRA OVC040=

USA.gov is the U.S. government's official web portal to all federal, state and local government web resources and services.